createdAt,value
2022-12-04T00:01:00.126Z,29.20
2022-12-04T00:03:32.815Z,25.00
2022-12-04T00:06:11.144Z,25.70
2022-12-04T00:08:44.426Z,25.30
2022-12-04T00:11:18.858Z,23.60
2022-12-04T00:13:51.411Z,25.40
2022-12-04T00:20:43.778Z,21.60
2022-12-04T00:23:16.280Z,22.30
2022-12-04T00:28:22.022Z,25.30
2022-12-04T00:30:54.592Z,25.70
2022-12-04T00:36:02.255Z,22.10
2022-12-04T00:38:34.824Z,30.60
2022-12-04T00:43:38.559Z,25.10
2022-12-04T00:46:11.216Z,23.90
2022-12-04T00:48:43.877Z,21.20
2022-12-04T00:53:48.433Z,16.80
2022-12-04T00:58:55.580Z,16.80
2022-12-04T01:01:28.834Z,16.60
2022-12-04T01:04:01.272Z,16.10
2022-12-04T01:06:35.104Z,18.30
2022-12-04T01:09:08.474Z,14.20
2022-12-04T01:11:41.254Z,12.00
2022-12-04T01:14:13.776Z,14.10
2022-12-04T01:16:46.247Z,12.40
2022-12-04T01:19:20.143Z,13.50
2022-12-04T01:21:52.511Z,10.40
2022-12-04T01:24:24.988Z,14.30
2022-12-04T01:27:15.006Z,9.50
2022-12-04T01:29:47.564Z,11.20
2022-12-04T01:34:51.151Z,11.10
2022-12-04T01:37:23.783Z,11.30
2022-12-04T01:42:28.234Z,13.50
2022-12-04T01:47:49.021Z,13.50
2022-12-04T01:50:21.582Z,14.30
2022-12-04T01:52:54.386Z,12.90
2022-12-04T01:55:26.947Z,15.10
2022-12-04T02:00:31.311Z,12.90
2022-12-04T02:03:03.742Z,12.50
2022-12-04T02:05:36.232Z,12.20
2022-12-04T02:08:08.864Z,12.20
2022-12-04T02:10:47.199Z,10.20
2022-12-04T02:13:24.651Z,10.00
2022-12-04T02:16:02.709Z,14.00
2022-12-04T02:18:39.987Z,9.50
2022-12-04T02:21:16.160Z,9.70
2022-12-04T02:24:00.973Z,9.60
2022-12-04T02:26:48.597Z,8.20
2022-12-04T02:29:28.273Z,9.20
2022-12-04T02:32:05.051Z,8.20
2022-12-04T02:34:43.679Z,7.80
2022-12-04T02:37:20.326Z,7.70
2022-12-04T02:39:56.299Z,7.80
2022-12-04T02:42:33.129Z,8.20
2022-12-04T02:45:08.264Z,8.40
2022-12-04T02:47:43.432Z,7.30
2022-12-04T02:50:18.487Z,7.80
2022-12-04T02:52:54.239Z,7.50
2022-12-04T02:55:30.648Z,8.60
2022-12-04T02:58:06.416Z,8.70
2022-12-04T03:00:40.124Z,7.60
2022-12-04T03:03:17.005Z,9.10
2022-12-04T03:05:57.123Z,7.90
2022-12-04T03:09:57.960Z,8.20
2022-12-04T03:12:36.351Z,7.90
2022-12-04T03:21:49.831Z,6.90
2022-12-04T03:24:26.946Z,8.00
2022-12-04T03:27:04.340Z,5.80
2022-12-04T03:29:40.609Z,5.90
2022-12-04T03:32:16.096Z,8.40
2022-12-04T03:35:09.734Z,6.40
2022-12-04T03:37:45.166Z,8.80
2022-12-04T03:40:23.299Z,8.90
2022-12-04T03:43:00.855Z,6.80
2022-12-04T03:45:40.747Z,7.40
2022-12-04T03:48:22.944Z,8.40
2022-12-04T03:51:01.312Z,8.00
2022-12-04T03:53:38.237Z,7.00
2022-12-04T03:56:13.592Z,8.30
2022-12-04T03:58:49.791Z,8.60
2022-12-04T04:01:24.874Z,8.10
2022-12-04T04:03:58.867Z,6.90
2022-12-04T04:06:34.747Z,8.70
2022-12-04T04:09:10.599Z,7.30
2022-12-04T04:11:47.465Z,7.80
2022-12-04T04:14:42.516Z,10.60
2022-12-04T04:17:38.484Z,7.50
2022-12-04T04:20:33.596Z,7.20
2022-12-04T04:23:24.728Z,10.00
2022-12-04T04:25:59.794Z,6.90
2022-12-04T04:28:34.277Z,7.40
2022-12-04T04:31:14.050Z,8.10
2022-12-04T04:33:52.172Z,8.00
2022-12-04T04:36:28.943Z,6.90
2022-12-04T04:39:06.848Z,7.80
2022-12-04T04:41:43.650Z,7.60
2022-12-04T04:44:21.462Z,6.00
2022-12-04T04:46:56.728Z,6.80
2022-12-04T04:49:31.979Z,7.80
2022-12-04T04:52:04.785Z,7.50
2022-12-04T04:54:37.820Z,6.40
2022-12-04T04:57:10.285Z,8.10
2022-12-04T04:59:42.836Z,7.20
2022-12-04T05:02:15.304Z,9.20
2022-12-04T05:04:47.919Z,8.20
2022-12-04T05:07:20.356Z,9.00
2022-12-04T05:09:55.744Z,7.40
2022-12-04T05:12:28.270Z,8.20
2022-12-04T05:15:00.759Z,8.10
2022-12-04T05:17:33.249Z,8.40
2022-12-04T05:20:05.975Z,8.60
2022-12-04T05:22:39.067Z,8.30
2022-12-04T05:25:12.049Z,8.90
2022-12-04T05:27:44.633Z,10.10
2022-12-04T05:30:17.534Z,8.20
2022-12-04T05:32:50.092Z,9.00
2022-12-04T05:35:22.541Z,8.70
2022-12-04T05:37:54.927Z,11.80
2022-12-04T05:40:27.349Z,9.60
2022-12-04T05:43:00.330Z,9.00
2022-12-04T05:45:32.861Z,9.80
2022-12-04T05:48:05.435Z,10.60
2022-12-04T05:50:38.119Z,10.60
2022-12-04T05:53:10.530Z,10.50
2022-12-04T05:55:42.966Z,9.70
2022-12-04T05:58:15.443Z,10.40
2022-12-04T06:00:47.778Z,11.10
2022-12-04T06:03:20.383Z,10.40
2022-12-04T06:05:53.059Z,12.90
2022-12-04T06:10:56.156Z,10.40
2022-12-04T06:13:31.497Z,10.00
2022-12-04T06:16:04.079Z,8.80
2022-12-04T06:21:07.588Z,12.10
2022-12-04T06:23:40.328Z,12.30
2022-12-04T06:26:13.051Z,12.70
2022-12-04T06:28:45.627Z,10.80
2022-12-04T06:31:19.892Z,12.00
2022-12-04T06:33:52.324Z,10.10
2022-12-04T06:36:25.115Z,11.10
2022-12-04T06:38:58.096Z,12.00
2022-12-04T06:41:31.494Z,10.20
2022-12-04T06:44:03.767Z,10.20
2022-12-04T06:46:39.972Z,11.30
2022-12-04T06:49:15.902Z,11.00
2022-12-04T06:51:48.333Z,11.60
2022-12-04T06:54:21.013Z,13.40
2022-12-04T06:56:53.594Z,11.20
2022-12-04T07:01:56.886Z,13.80
2022-12-04T07:07:00.064Z,11.00
2022-12-04T07:09:32.353Z,7.00
2022-12-04T07:12:04.981Z,11.30
2022-12-04T07:15:43.827Z,11.30
2022-12-04T07:18:16.297Z,9.90
2022-12-04T07:20:48.716Z,11.20
2022-12-04T07:23:21.284Z,9.20
2022-12-04T07:25:53.946Z,10.00
2022-12-04T07:30:57.147Z,9.50
2022-12-04T07:36:01.615Z,12.50
2022-12-04T07:38:35.146Z,9.50
2022-12-04T07:41:08.815Z,9.70
2022-12-04T07:51:15.671Z,9.10
2022-12-04T07:53:49.375Z,9.50
2022-12-04T07:56:22.125Z,10.00
2022-12-04T07:58:54.637Z,9.90
2022-12-04T08:15:57.313Z,10.20
2022-12-04T08:18:30.436Z,10.40
2022-12-04T08:21:08.713Z,8.70
2022-12-04T08:23:43.852Z,10.20
2022-12-04T08:26:19.172Z,11.70
2022-12-04T08:28:53.763Z,8.80
2022-12-04T08:31:28.321Z,10.50
2022-12-04T08:34:03.253Z,10.00
2022-12-04T08:36:37.101Z,10.20
2022-12-04T08:39:09.725Z,11.00
2022-12-04T08:44:13.114Z,9.30
2022-12-04T08:46:45.453Z,10.30
2022-12-04T08:49:17.870Z,11.80
2022-12-04T08:51:50.314Z,8.80
2022-12-04T08:54:22.747Z,11.40
2022-12-04T08:56:55.468Z,9.40
2022-12-04T08:59:27.730Z,12.40
2022-12-04T09:02:00.177Z,10.10
2022-12-04T09:04:32.688Z,9.40
2022-12-04T09:07:05.173Z,8.50
2022-12-04T09:09:37.912Z,8.80
2022-12-04T09:12:10.241Z,8.60
2022-12-04T09:14:42.532Z,10.20
2022-12-04T09:17:16.190Z,9.50
2022-12-04T09:19:48.465Z,11.10
2022-12-04T09:22:20.736Z,8.00
2022-12-04T09:24:52.967Z,8.90
2022-12-04T09:27:25.131Z,9.50
2022-12-04T09:29:57.862Z,8.90
2022-12-04T09:32:30.297Z,8.70
2022-12-04T09:35:02.779Z,7.90
2022-12-04T09:37:36.731Z,8.20
2022-12-04T09:40:13.411Z,7.80
2022-12-04T09:42:49.453Z,7.60
2022-12-04T09:45:24.164Z,9.60
2022-12-04T09:47:58.108Z,8.00
2022-12-04T09:50:36.072Z,6.80
2022-12-04T09:53:13.032Z,8.30
2022-12-04T09:55:48.755Z,8.20
2022-12-04T09:58:25.150Z,9.40
2022-12-04T10:00:57.806Z,7.20
2022-12-04T10:06:08.786Z,9.40
2022-12-04T10:08:45.050Z,8.10
2022-12-04T10:11:20.986Z,10.60
2022-12-04T10:14:15.508Z,9.00
2022-12-04T10:16:57.089Z,8.60
2022-12-04T10:19:33.398Z,8.50
2022-12-04T10:22:12.765Z,7.90
2022-12-04T10:24:48.507Z,8.80
2022-12-04T10:27:25.567Z,10.10
2022-12-04T10:30:00.209Z,9.60
2022-12-04T10:32:36.159Z,7.60
2022-12-04T10:35:21.078Z,7.50
2022-12-04T10:37:57.648Z,8.80
2022-12-04T10:40:36.514Z,8.80
2022-12-04T10:43:15.599Z,8.90
2022-12-04T10:45:48.081Z,8.90
2022-12-04T10:48:29.767Z,7.10
2022-12-04T10:51:02.288Z,9.70
2022-12-04T10:53:36.248Z,9.00
2022-12-04T10:56:14.817Z,10.80
2022-12-04T10:58:58.837Z,8.00
2022-12-04T11:01:33.466Z,9.20
2022-12-04T11:04:09.691Z,8.30
2022-12-04T11:06:43.546Z,7.00
2022-12-04T11:09:23.701Z,7.30
2022-12-04T11:11:56.086Z,8.00
2022-12-04T11:14:28.827Z,7.90
2022-12-04T11:17:06.339Z,8.90
2022-12-04T11:19:38.730Z,8.20
2022-12-04T11:22:17.090Z,11.30
2022-12-04T11:24:54.800Z,8.40
2022-12-04T11:27:31.717Z,8.70
2022-12-04T11:30:09.737Z,7.90
2022-12-04T11:32:42.362Z,10.10
2022-12-04T11:35:21.520Z,6.80
2022-12-04T11:37:59.298Z,9.60
2022-12-04T11:40:35.606Z,8.10
2022-12-04T11:43:14.258Z,10.90
2022-12-04T11:45:57.131Z,9.10
2022-12-04T11:48:30.803Z,10.60
2022-12-04T11:51:11.660Z,9.30
2022-12-04T11:53:53.570Z,8.20
2022-12-04T11:56:31.162Z,9.70
2022-12-04T11:59:27.251Z,7.90
2022-12-04T12:02:04.855Z,8.30
2022-12-04T12:04:57.104Z,7.20
2022-12-04T12:09:48.135Z,11.10
2022-12-04T12:12:29.501Z,11.00
2022-12-04T12:15:09.560Z,12.70
2022-12-04T12:17:47.122Z,9.10
2022-12-04T12:20:23.913Z,10.30
2022-12-04T12:23:08.118Z,10.60
2022-12-04T12:25:51.933Z,12.30
2022-12-04T12:28:34.666Z,11.70
2022-12-04T12:31:22.804Z,14.10
2022-12-04T12:34:00.348Z,13.10
2022-12-04T12:36:43.460Z,12.20
2022-12-04T12:39:20.314Z,12.20
2022-12-04T12:41:56.794Z,12.10
2022-12-04T12:44:35.983Z,11.40
2022-12-04T12:54:49.883Z,15.10
2022-12-04T12:57:26.552Z,15.00
2022-12-04T13:00:01.761Z,12.30
2022-12-04T13:02:37.577Z,11.10
2022-12-04T13:05:12.552Z,13.50
2022-12-04T13:07:49.016Z,11.90
2022-12-04T13:10:24.395Z,12.60
2022-12-04T13:13:01.006Z,10.30
2022-12-04T13:15:39.768Z,9.10
2022-12-04T13:18:16.798Z,14.40
2022-12-04T13:20:56.635Z,11.50
2022-12-04T13:23:45.931Z,13.80
2022-12-04T13:26:25.792Z,12.80
2022-12-04T13:29:03.901Z,12.00
2022-12-04T13:31:46.269Z,11.10
2022-12-04T13:34:36.993Z,12.10
2022-12-04T13:37:24.459Z,12.40
2022-12-04T13:40:30.788Z,13.10
2022-12-04T13:43:29.689Z,12.00
2022-12-04T13:46:05.144Z,11.30
2022-12-04T13:48:41.068Z,13.30
2022-12-04T13:51:38.268Z,15.00
2022-12-04T13:54:29.885Z,14.80
2022-12-04T13:57:21.081Z,11.90
2022-12-04T14:00:06.640Z,13.40
2022-12-04T14:02:39.438Z,11.90
2022-12-04T14:07:45.955Z,13.70
2022-12-04T14:10:29.831Z,16.30
2022-12-04T14:13:06.041Z,13.00
2022-12-04T14:15:40.301Z,12.80
2022-12-04T14:18:21.935Z,15.90
2022-12-04T14:21:01.563Z,13.80
2022-12-04T14:23:40.083Z,15.20
2022-12-04T14:27:09.473Z,14.90
2022-12-04T14:29:36.326Z,15.90
2022-12-04T14:32:15.585Z,15.30
2022-12-04T14:34:49.293Z,13.70
2022-12-04T14:37:32.601Z,14.10
2022-12-04T14:40:23.342Z,16.90
2022-12-04T14:42:58.918Z,16.40
2022-12-04T14:45:38.316Z,15.80
2022-12-04T14:48:54.623Z,18.50
2022-12-04T14:51:34.612Z,18.80
2022-12-04T14:54:14.912Z,17.50
2022-12-04T14:57:01.689Z,18.50
2022-12-04T14:59:48.941Z,18.90
2022-12-04T15:02:38.676Z,19.30
2022-12-04T15:05:14.074Z,17.70
2022-12-04T15:07:55.249Z,15.30
2022-12-04T15:10:47.907Z,19.60
2022-12-04T15:13:30.172Z,16.50
2022-12-04T15:16:11.497Z,17.60
2022-12-04T15:18:43.724Z,18.80
2022-12-04T15:21:16.005Z,15.10
2022-12-04T15:23:48.270Z,16.10
2022-12-04T15:26:21.970Z,17.90
2022-12-04T15:28:56.907Z,19.20
2022-12-04T15:31:33.638Z,21.30
2022-12-04T15:34:07.529Z,19.90
2022-12-04T15:36:47.172Z,16.90
2022-12-04T15:39:23.109Z,15.80
2022-12-04T15:42:02.601Z,15.60
2022-12-04T15:44:36.103Z,16.70
2022-12-04T15:47:22.651Z,20.40
2022-12-04T15:49:55.229Z,18.10
2022-12-04T15:52:28.350Z,18.20
2022-12-04T15:57:34.604Z,19.60
2022-12-04T16:00:09.667Z,17.20
2022-12-04T16:02:43.468Z,19.10
2022-12-04T16:05:27.234Z,19.60
2022-12-04T16:08:01.445Z,17.60
2022-12-04T16:10:35.163Z,17.40
2022-12-04T16:13:08.286Z,14.90
2022-12-04T16:15:42.262Z,16.70
2022-12-04T16:18:16.605Z,15.40
2022-12-04T16:20:48.944Z,15.60
2022-12-04T16:23:21.186Z,13.80
2022-12-04T16:25:53.794Z,19.00
2022-12-04T16:28:26.351Z,14.80
2022-12-04T16:30:58.663Z,14.20
2022-12-04T16:33:31.110Z,14.20
2022-12-04T16:36:03.395Z,14.50
2022-12-04T16:38:36.620Z,14.30
2022-12-04T16:41:11.887Z,13.10
2022-12-04T16:43:44.426Z,15.50
2022-12-04T16:48:48.213Z,13.40
2022-12-04T16:51:22.136Z,13.70
2022-12-04T16:53:55.418Z,12.70
2022-12-04T16:56:27.764Z,13.50
2022-12-04T16:59:00.164Z,14.40
2022-12-04T17:01:36.701Z,12.50
2022-12-04T17:04:09.131Z,12.40
2022-12-04T17:06:42.954Z,13.70
2022-12-04T17:09:15.721Z,13.00
2022-12-04T17:11:48.831Z,12.50
2022-12-04T17:14:21.248Z,13.40
2022-12-04T17:16:55.090Z,12.90
2022-12-04T17:19:27.559Z,16.30
2022-12-04T17:22:01.304Z,13.40
2022-12-04T17:24:33.565Z,16.20
2022-12-04T17:27:06.434Z,12.20
2022-12-04T17:29:39.277Z,11.70
2022-12-04T17:32:11.929Z,11.70
2022-12-04T17:37:15.093Z,12.60
2022-12-04T17:42:21.469Z,11.60
2022-12-04T17:44:54.295Z,13.30
2022-12-04T17:47:26.952Z,15.70
2022-12-04T17:52:31.133Z,15.20
2022-12-04T17:55:03.635Z,11.10
2022-12-04T17:57:35.793Z,17.50
2022-12-04T18:00:10.662Z,14.20
2022-12-04T18:02:48.724Z,13.60
2022-12-04T18:05:24.747Z,12.30
2022-12-04T18:07:58.281Z,14.10
2022-12-04T18:10:30.603Z,11.70
2022-12-04T18:13:02.892Z,12.60
2022-12-04T18:15:37.556Z,13.60
2022-12-04T18:18:10.013Z,10.50
2022-12-04T18:20:42.435Z,13.70
2022-12-04T18:23:14.764Z,15.20
2022-12-04T18:25:57.630Z,11.60
2022-12-04T18:28:31.119Z,11.80
2022-12-04T18:31:06.995Z,14.10
2022-12-04T18:33:42.337Z,11.90
2022-12-04T18:36:17.795Z,11.20
2022-12-04T18:38:56.503Z,11.90
2022-12-04T18:41:30.279Z,12.00
2022-12-04T18:44:04.279Z,12.70
2022-12-04T18:46:37.484Z,13.60
2022-12-04T18:49:13.115Z,13.70
2022-12-04T18:51:51.312Z,14.90
2022-12-04T18:54:59.739Z,14.00
2022-12-04T18:57:56.370Z,12.40
2022-12-04T19:00:28.948Z,13.00
2022-12-04T19:05:36.108Z,15.70
2022-12-04T19:08:09.779Z,12.10
2022-12-04T19:10:42.336Z,15.30
2022-12-04T19:13:15.043Z,13.70
2022-12-04T19:15:48.251Z,13.00
2022-12-04T19:18:22.786Z,13.40
2022-12-04T19:20:55.512Z,16.10
2022-12-04T19:23:28.942Z,14.70
2022-12-04T19:26:02.377Z,12.20
2022-12-04T19:28:35.701Z,13.80
2022-12-04T19:31:07.994Z,12.30
2022-12-04T19:33:40.826Z,12.00
2022-12-04T19:36:15.380Z,11.20
2022-12-04T19:38:53.676Z,14.60
2022-12-04T19:41:28.060Z,10.20
2022-12-04T19:44:05.399Z,13.20
2022-12-04T19:46:48.029Z,10.60
2022-12-04T19:49:20.575Z,12.40
2022-12-04T19:54:26.716Z,11.10
2022-12-04T19:56:59.703Z,9.70
2022-12-04T20:02:14.490Z,10.80
2022-12-04T20:04:48.522Z,13.20
2022-12-04T20:07:21.071Z,11.90
2022-12-04T20:09:53.403Z,11.60
2022-12-04T20:12:25.978Z,9.80
2022-12-04T20:14:59.309Z,9.60
2022-12-04T20:17:35.335Z,12.40
2022-12-04T20:20:25.532Z,6.60
2022-12-04T20:23:00.377Z,7.50
2022-12-04T20:30:01.573Z,9.40
2022-12-04T20:32:34.081Z,12.60
2022-12-04T20:35:07.914Z,10.70
2022-12-04T20:37:40.595Z,9.00
2022-12-04T20:42:46.328Z,9.60
2022-12-04T20:45:18.723Z,10.00
2022-12-04T20:47:51.153Z,10.30
2022-12-04T20:50:23.574Z,8.30
2022-12-04T20:52:56.711Z,9.10
2022-12-04T20:55:29.159Z,7.90
2022-12-04T20:58:02.945Z,6.30
2022-12-04T21:00:35.289Z,7.10
2022-12-04T21:03:07.655Z,6.70
2022-12-04T21:05:40.065Z,9.10
2022-12-04T21:08:12.467Z,8.40
2022-12-04T21:10:46.086Z,9.90
2022-12-04T21:13:35.855Z,10.40
2022-12-04T21:16:08.399Z,10.30
2022-12-04T21:21:11.734Z,11.10
2022-12-04T21:26:15.043Z,8.60
2022-12-04T21:31:18.150Z,8.60
2022-12-04T21:33:50.545Z,7.00
2022-12-04T21:36:22.881Z,6.80
2022-12-04T21:38:55.946Z,5.90
2022-12-04T21:41:45.904Z,8.40
2022-12-04T21:44:20.036Z,6.30
2022-12-04T21:46:52.669Z,8.60
2022-12-04T21:51:57.801Z,6.40
2022-12-04T21:54:31.452Z,6.90
2022-12-04T21:59:34.614Z,9.30
2022-12-04T22:02:07.032Z,7.00
2022-12-04T22:04:39.528Z,6.30
2022-12-04T22:07:11.942Z,6.20
2022-12-04T22:16:09.347Z,6.00
2022-12-04T22:18:41.894Z,8.40
2022-12-04T22:21:15.910Z,6.10
2022-12-04T22:23:48.395Z,6.80
2022-12-04T22:31:26.462Z,9.70
2022-12-04T22:34:00.220Z,5.00
2022-12-04T22:36:33.842Z,6.10
2022-12-04T22:39:09.831Z,5.70
2022-12-04T22:41:42.982Z,4.50
2022-12-04T22:44:15.401Z,5.00
2022-12-04T22:46:47.829Z,5.80
2022-12-04T22:49:20.332Z,7.10
2022-12-04T22:51:52.652Z,5.90
2022-12-04T22:54:25.127Z,5.80
2022-12-04T22:56:57.481Z,8.20
2022-12-04T22:59:29.931Z,7.20
2022-12-04T23:02:02.353Z,5.50
2022-12-04T23:04:34.698Z,4.10
2022-12-04T23:07:07.145Z,9.70
2022-12-04T23:09:39.636Z,6.40
2022-12-04T23:14:42.592Z,5.70
2022-12-04T23:17:14.943Z,5.60
2022-12-04T23:19:47.236Z,6.20
2022-12-04T23:22:19.469Z,7.60
2022-12-04T23:24:51.757Z,4.30
2022-12-04T23:27:24.000Z,7.30
2022-12-04T23:29:56.222Z,5.60
2022-12-04T23:32:28.435Z,5.90
2022-12-04T23:35:00.729Z,5.00
2022-12-04T23:37:33.022Z,6.40
2022-12-04T23:40:05.976Z,4.90
2022-12-04T23:42:38.408Z,5.30
2022-12-04T23:45:11.776Z,6.20
2022-12-04T23:47:44.030Z,6.10
2022-12-04T23:50:16.425Z,5.30
2022-12-04T23:52:48.675Z,5.90
2022-12-04T23:55:21.104Z,6.40
2022-12-04T23:57:53.480Z,5.30
